createdAt,value
2022-08-21T00:00:42.241Z,18.09
2022-08-21T00:01:42.925Z,18.12
2022-08-21T00:02:47.268Z,18.14
2022-08-21T00:03:51.663Z,18.18
2022-08-21T00:04:57.220Z,18.20
2022-08-21T00:06:00.549Z,18.22
2022-08-21T00:07:04.911Z,18.25
2022-08-21T00:08:09.280Z,18.27
2022-08-21T00:09:13.697Z,18.28
2022-08-21T00:10:18.096Z,18.29
2022-08-21T00:11:22.455Z,18.30
2022-08-21T00:12:26.829Z,18.31
2022-08-21T00:13:31.134Z,18.31
2022-08-21T00:14:35.664Z,18.31
2022-08-21T00:15:40.013Z,18.31
2022-08-21T00:16:44.337Z,18.32
2022-08-21T00:17:48.645Z,18.31
2022-08-21T00:18:53.085Z,18.31
2022-08-21T00:19:57.584Z,18.32
2022-08-21T00:21:01.919Z,18.31
2022-08-21T00:22:06.310Z,18.27
2022-08-21T00:23:10.579Z,18.24
2022-08-21T00:24:15.051Z,18.21
2022-08-21T00:25:19.819Z,18.18
2022-08-21T00:26:23.836Z,18.17
2022-08-21T00:27:28.223Z,18.15
2022-08-21T00:28:32.607Z,18.14
2022-08-21T00:29:36.991Z,18.13
2022-08-21T00:30:41.371Z,18.13
2022-08-21T00:31:45.664Z,18.13
2022-08-21T00:32:50.069Z,18.14
2022-08-21T00:34:00.688Z,18.16
2022-08-21T00:34:58.862Z,18.17
2022-08-21T00:36:03.295Z,18.19
2022-08-21T00:37:07.754Z,18.20
2022-08-21T00:38:12.081Z,18.21
2022-08-21T00:39:16.519Z,18.22
2022-08-21T00:40:20.957Z,18.22
2022-08-21T00:41:37.419Z,18.23
2022-08-21T00:42:29.705Z,18.24
2022-08-21T00:43:34.161Z,18.22
2022-08-21T00:44:38.504Z,18.22
2022-08-21T00:45:42.882Z,18.22
2022-08-21T00:46:47.292Z,18.21
2022-08-21T00:47:51.682Z,18.21
2022-08-21T00:48:57.230Z,18.21
2022-08-21T00:50:00.296Z,18.20
2022-08-21T00:51:04.762Z,18.19
2022-08-21T00:52:09.120Z,18.17
2022-08-21T00:53:13.449Z,18.13
2022-08-21T00:54:19.200Z,18.11
2022-08-21T00:55:23.429Z,18.09
2022-08-21T00:56:26.615Z,18.09
2022-08-21T00:57:31.058Z,18.07
2022-08-21T00:58:35.440Z,18.07
2022-08-21T00:59:39.960Z,18.06
2022-08-21T01:00:44.358Z,18.06
2022-08-21T01:01:48.685Z,18.06
2022-08-21T01:02:53.025Z,18.07
2022-08-21T01:03:57.410Z,18.07
2022-08-21T01:05:01.790Z,18.07
2022-08-21T01:06:06.138Z,18.08
2022-08-21T01:07:11.450Z,18.09
2022-08-21T01:08:15.459Z,18.10
2022-08-21T01:09:19.795Z,18.10
2022-08-21T01:10:24.680Z,18.11
2022-08-21T01:11:28.496Z,18.12
2022-08-21T01:12:32.890Z,18.12
2022-08-21T01:13:37.289Z,18.13
2022-08-21T01:14:41.688Z,18.13
2022-08-21T01:15:46.077Z,18.13
2022-08-21T01:16:50.492Z,18.13
2022-08-21T01:17:54.941Z,18.14
2022-08-21T01:18:59.279Z,18.14
2022-08-21T01:20:03.664Z,18.14
2022-08-21T01:21:08.001Z,18.14
2022-08-21T01:22:12.355Z,18.14
2022-08-21T01:23:16.788Z,18.14
2022-08-21T01:24:21.192Z,18.14
2022-08-21T01:25:25.574Z,18.13
2022-08-21T01:26:33.930Z,18.13
2022-08-21T01:27:34.291Z,18.12
2022-08-21T01:28:38.702Z,18.10
2022-08-21T01:29:43.056Z,18.08
2022-08-21T01:30:47.458Z,18.07
2022-08-21T01:31:51.854Z,18.06
2022-08-21T01:32:56.322Z,18.03
2022-08-21T01:34:00.638Z,18.01
2022-08-21T01:35:05.109Z,17.98
2022-08-21T01:36:09.439Z,17.94
2022-08-21T01:37:13.895Z,17.91
2022-08-21T01:38:18.267Z,17.88
2022-08-21T01:39:22.662Z,17.85
2022-08-21T01:40:27.023Z,17.83
2022-08-21T01:41:31.344Z,17.81
2022-08-21T01:42:35.840Z,17.79
2022-08-21T01:43:40.142Z,17.77
2022-08-21T01:44:44.449Z,17.77
2022-08-21T01:45:48.844Z,17.77
2022-08-21T01:46:53.256Z,17.77
2022-08-21T01:47:57.609Z,17.77
2022-08-21T01:49:01.971Z,17.77
2022-08-21T01:50:06.439Z,17.76
2022-08-21T01:51:10.842Z,17.74
2022-08-21T01:52:15.161Z,17.72
2022-08-21T01:53:19.555Z,17.72
2022-08-21T01:54:23.869Z,17.73
2022-08-21T01:55:28.305Z,17.73
2022-08-21T01:56:35.684Z,17.73
2022-08-21T01:57:39.153Z,17.72
2022-08-21T01:58:43.448Z,17.72
2022-08-21T01:59:47.806Z,17.71
2022-08-21T02:00:52.264Z,17.71
2022-08-21T02:01:56.549Z,17.72
2022-08-21T02:03:00.951Z,17.72
2022-08-21T02:04:05.357Z,17.73
2022-08-21T02:05:09.814Z,17.74
2022-08-21T02:06:14.115Z,17.75
2022-08-21T02:07:18.525Z,17.76
2022-08-21T02:08:22.884Z,17.77
2022-08-21T02:09:27.158Z,17.78
2022-08-21T02:10:31.584Z,17.78
2022-08-21T02:11:35.989Z,17.77
2022-08-21T02:12:40.344Z,17.78
2022-08-21T02:13:44.669Z,17.77
2022-08-21T02:14:49.061Z,17.77
2022-08-21T02:15:53.426Z,17.77
2022-08-21T02:17:05.132Z,17.77
2022-08-21T02:18:02.204Z,17.77
2022-08-21T02:19:06.725Z,17.77
2022-08-21T02:20:11.027Z,17.77
2022-08-21T02:21:15.406Z,17.77
2022-08-21T02:22:19.793Z,17.77
2022-08-21T02:23:27.242Z,17.76
2022-08-21T02:24:28.600Z,17.75
2022-08-21T02:25:32.942Z,17.75
2022-08-21T02:26:37.203Z,17.75
2022-08-21T02:27:41.583Z,17.74
2022-08-21T02:28:45.968Z,17.74
2022-08-21T02:29:50.424Z,17.74
2022-08-21T02:30:54.692Z,17.73
2022-08-21T02:31:59.111Z,17.73
2022-08-21T02:33:03.515Z,17.72
2022-08-21T02:34:07.917Z,17.72
2022-08-21T02:35:12.276Z,17.72
2022-08-21T02:36:16.655Z,17.72
2022-08-21T02:37:21.021Z,17.71
2022-08-21T02:38:25.404Z,17.70
2022-08-21T02:39:29.811Z,17.70
2022-08-21T02:40:34.186Z,17.69
2022-08-21T02:41:38.576Z,17.69
2022-08-21T02:42:42.975Z,17.68
2022-08-21T02:43:47.404Z,17.67
2022-08-21T02:44:51.667Z,17.66
2022-08-21T02:45:56.057Z,17.66
2022-08-21T02:47:00.441Z,17.65
2022-08-21T02:48:04.862Z,17.65
2022-08-21T02:49:09.268Z,17.63
2022-08-21T02:50:13.644Z,17.61
2022-08-21T02:51:18.044Z,17.58
2022-08-21T02:52:22.360Z,17.56
2022-08-21T02:53:26.742Z,17.54
2022-08-21T02:54:31.109Z,17.53
2022-08-21T02:55:35.463Z,17.53
2022-08-21T02:56:39.822Z,17.53
2022-08-21T02:57:44.114Z,17.53
2022-08-21T02:58:48.552Z,17.53
2022-08-21T02:59:52.852Z,17.53
2022-08-21T03:00:57.264Z,17.54
2022-08-21T03:02:01.722Z,17.54
2022-08-21T03:03:05.905Z,17.55
2022-08-21T03:04:10.356Z,17.55
2022-08-21T03:05:14.717Z,17.55
2022-08-21T03:06:19.116Z,17.55
2022-08-21T03:07:23.515Z,17.54
2022-08-21T03:08:28.002Z,17.52
2022-08-21T03:09:32.282Z,17.51
2022-08-21T03:10:36.684Z,17.50
2022-08-21T03:11:41.036Z,17.49
2022-08-21T03:12:45.413Z,17.48
2022-08-21T03:13:49.819Z,17.46
2022-08-21T03:14:54.159Z,17.45
2022-08-21T03:15:58.614Z,17.45
2022-08-21T03:17:02.993Z,17.44
2022-08-21T03:18:07.317Z,17.45
2022-08-21T03:19:11.669Z,17.45
2022-08-21T03:20:16.057Z,17.45
2022-08-21T03:21:20.442Z,17.45
2022-08-21T03:22:24.822Z,17.45
2022-08-21T03:23:32.710Z,17.44
2022-08-21T03:24:33.706Z,17.44
2022-08-21T03:25:40.559Z,17.43
2022-08-21T03:26:42.274Z,17.43
2022-08-21T03:27:46.685Z,17.43
2022-08-21T03:28:51.039Z,17.43
2022-08-21T03:29:55.436Z,17.43
2022-08-21T03:30:59.789Z,17.42
2022-08-21T03:32:04.202Z,17.41
2022-08-21T03:33:08.560Z,17.40
2022-08-21T03:34:27.051Z,17.39
2022-08-21T03:35:30.355Z,17.39
2022-08-21T03:36:34.692Z,17.39
2022-08-21T03:37:39.059Z,17.38
2022-08-21T03:38:43.530Z,17.38
2022-08-21T03:39:47.927Z,17.37
2022-08-21T03:40:52.139Z,17.36
2022-08-21T03:41:56.489Z,17.35
2022-08-21T03:43:00.921Z,17.34
2022-08-21T03:44:05.265Z,17.33
2022-08-21T03:45:09.644Z,17.32
2022-08-21T03:46:14.051Z,17.32
2022-08-21T03:47:18.438Z,17.31
2022-08-21T03:48:22.903Z,17.31
2022-08-21T03:49:27.215Z,17.31
2022-08-21T03:50:31.479Z,17.30
2022-08-21T03:51:38.775Z,17.30
2022-08-21T03:52:42.207Z,17.30
2022-08-21T03:53:46.472Z,17.29
2022-08-21T03:54:50.806Z,17.29
2022-08-21T03:55:55.124Z,17.28
2022-08-21T03:56:59.583Z,17.27
2022-08-21T03:58:16.691Z,17.27
2022-08-21T03:59:08.234Z,17.26
2022-08-21T04:00:12.524Z,17.25
2022-08-21T04:01:16.845Z,17.24
2022-08-21T04:02:21.179Z,17.23
2022-08-21T04:03:25.499Z,17.21
2022-08-21T04:04:29.917Z,17.20
2022-08-21T04:05:34.184Z,17.19
2022-08-21T04:06:38.528Z,17.18
2022-08-21T04:07:42.971Z,17.17
2022-08-21T04:08:47.357Z,17.17
2022-08-21T04:09:51.649Z,17.15
2022-08-21T04:10:56.062Z,17.12
2022-08-21T04:12:00.463Z,17.10
2022-08-21T04:13:04.732Z,17.09
2022-08-21T04:14:09.071Z,17.08
2022-08-21T04:15:13.383Z,17.08
2022-08-21T04:16:17.704Z,17.07
2022-08-21T04:17:21.991Z,17.07
2022-08-21T04:18:26.333Z,17.08
2022-08-21T04:19:30.616Z,17.08
2022-08-21T04:20:34.949Z,17.09
2022-08-21T04:21:39.258Z,17.09
2022-08-21T04:22:43.541Z,17.09
2022-08-21T04:23:47.980Z,17.09
2022-08-21T04:24:52.255Z,17.10
2022-08-21T04:25:56.661Z,17.10
2022-08-21T04:27:00.906Z,17.11
2022-08-21T04:28:05.220Z,17.12
2022-08-21T04:29:10.417Z,17.13
2022-08-21T04:30:13.943Z,17.14
2022-08-21T04:31:18.306Z,17.15
2022-08-21T04:32:22.676Z,17.16
2022-08-21T04:33:27.042Z,17.17
2022-08-21T04:34:31.435Z,17.18
2022-08-21T04:35:35.758Z,17.19
2022-08-21T04:36:40.044Z,17.20
2022-08-21T04:37:44.390Z,17.22
2022-08-21T04:38:48.809Z,17.23
2022-08-21T04:39:53.725Z,17.23
2022-08-21T04:40:57.570Z,17.23
2022-08-21T04:42:01.886Z,17.24
2022-08-21T04:43:06.300Z,17.23
2022-08-21T04:44:10.666Z,17.23
2022-08-21T04:45:15.037Z,17.22
2022-08-21T04:46:19.372Z,17.21
2022-08-21T04:47:23.751Z,17.20
2022-08-21T04:48:28.035Z,17.19
2022-08-21T04:49:32.434Z,17.19
2022-08-21T04:50:36.806Z,17.19
2022-08-21T04:51:41.184Z,17.19
2022-08-21T04:52:45.531Z,17.19
2022-08-21T04:53:49.795Z,17.20
2022-08-21T04:54:55.036Z,17.20
2022-08-21T04:55:58.523Z,17.21
2022-08-21T04:57:02.780Z,17.22
2022-08-21T04:58:07.183Z,17.23
2022-08-21T04:59:11.492Z,17.24
2022-08-21T05:00:15.844Z,17.25
2022-08-21T05:01:20.356Z,17.26
2022-08-21T05:02:24.557Z,17.27
2022-08-21T05:03:28.936Z,17.28
2022-08-21T05:04:33.337Z,17.29
2022-08-21T05:05:37.612Z,17.30
2022-08-21T05:06:41.955Z,17.32
2022-08-21T05:07:46.310Z,17.33
2022-08-21T05:08:50.599Z,17.34
2022-08-21T05:09:54.980Z,17.36
2022-08-21T05:11:00.718Z,17.37
2022-08-21T05:12:03.695Z,17.38
2022-08-21T05:13:08.032Z,17.40
2022-08-21T05:14:12.340Z,17.42
2022-08-21T05:15:19.681Z,17.43
2022-08-21T05:16:31.672Z,17.44
2022-08-21T05:17:27.475Z,17.46
2022-08-21T05:18:31.715Z,17.47
2022-08-21T05:19:36.035Z,17.48
2022-08-21T05:20:40.394Z,17.48
2022-08-21T05:21:44.734Z,17.50
2022-08-21T05:22:49.183Z,17.53
2022-08-21T05:23:53.449Z,17.55
2022-08-21T05:24:57.857Z,17.58
2022-08-21T05:26:02.216Z,17.61
2022-08-21T05:27:06.599Z,17.63
2022-08-21T05:28:10.890Z,17.65
2022-08-21T05:29:15.234Z,17.67
2022-08-21T05:30:19.660Z,17.69
2022-08-21T05:31:24.025Z,17.70
2022-08-21T05:32:28.252Z,17.72
2022-08-21T05:33:32.629Z,17.74
2022-08-21T05:34:36.914Z,17.76
2022-08-21T05:35:41.254Z,17.79
2022-08-21T05:36:45.668Z,17.82
2022-08-21T05:37:50.023Z,17.85
2022-08-21T05:38:54.327Z,17.88
2022-08-21T05:40:20.656Z,17.90
2022-08-21T05:41:03.041Z,17.93
2022-08-21T05:42:07.280Z,17.96
2022-08-21T05:43:11.607Z,17.98
2022-08-21T05:44:15.986Z,18.02
2022-08-21T05:45:34.691Z,18.05
2022-08-21T05:46:24.699Z,18.08
2022-08-21T05:47:29.046Z,18.09
2022-08-21T05:48:33.469Z,18.12
2022-08-21T05:49:37.771Z,18.14
2022-08-21T05:50:42.205Z,18.16
2022-08-21T05:51:46.531Z,18.18
2022-08-21T05:52:50.943Z,18.20
2022-08-21T05:53:55.251Z,18.22
2022-08-21T05:54:59.675Z,18.24
2022-08-21T05:56:04.031Z,18.27
2022-08-21T05:57:08.397Z,18.31
2022-08-21T05:58:12.816Z,18.36
2022-08-21T05:59:17.098Z,18.41
2022-08-21T06:00:21.528Z,18.46
2022-08-21T06:01:25.928Z,18.50
2022-08-21T06:02:30.227Z,18.54
2022-08-21T06:03:34.551Z,18.58
2022-08-21T06:04:38.977Z,18.61
2022-08-21T06:05:43.274Z,18.64
2022-08-21T06:06:47.604Z,18.65
2022-08-21T06:07:51.972Z,18.67
2022-08-21T06:08:56.377Z,18.69
2022-08-21T06:10:00.705Z,18.71
2022-08-21T06:11:05.047Z,18.73
2022-08-21T06:12:09.431Z,18.74
2022-08-21T06:13:13.873Z,18.76
2022-08-21T06:14:18.247Z,18.77
2022-08-21T06:15:22.616Z,18.79
2022-08-21T06:16:26.992Z,18.81
2022-08-21T06:17:31.369Z,18.84
2022-08-21T06:18:35.709Z,18.85
2022-08-21T06:19:40.126Z,18.87
2022-08-21T06:20:44.388Z,18.89
2022-08-21T06:21:48.738Z,18.89
2022-08-21T06:22:53.158Z,18.91
2022-08-21T06:23:57.411Z,18.93
2022-08-21T06:25:01.771Z,18.97
2022-08-21T06:26:06.101Z,19.00
2022-08-21T06:27:10.553Z,19.04
2022-08-21T06:28:14.860Z,19.09
2022-08-21T06:29:19.310Z,19.16
2022-08-21T06:30:23.694Z,19.23
2022-08-21T06:31:28.041Z,19.31
2022-08-21T06:32:32.428Z,19.38
2022-08-21T06:33:36.841Z,19.45
2022-08-21T06:34:41.236Z,19.51
2022-08-21T06:35:45.653Z,19.57
2022-08-21T06:36:50.023Z,19.62
2022-08-21T06:37:54.377Z,19.67
2022-08-21T06:38:58.740Z,19.73
2022-08-21T06:40:03.204Z,19.79
2022-08-21T06:41:07.598Z,19.83
2022-08-21T06:42:11.939Z,19.86
2022-08-21T06:43:16.310Z,19.89
2022-08-21T06:44:20.690Z,19.90
2022-08-21T06:45:25.104Z,19.88
2022-08-21T06:46:29.415Z,19.87
2022-08-21T06:47:33.745Z,19.87
2022-08-21T06:48:38.165Z,19.86
2022-08-21T06:49:42.525Z,19.87
2022-08-21T06:50:46.829Z,19.88
2022-08-21T06:51:51.193Z,19.90
2022-08-21T06:52:55.607Z,19.91
2022-08-21T06:53:59.926Z,19.94
2022-08-21T06:55:04.255Z,19.97
2022-08-21T06:56:08.631Z,20.00
2022-08-21T06:57:12.983Z,20.05
2022-08-21T06:58:17.428Z,20.09
2022-08-21T06:59:21.893Z,20.15
2022-08-21T07:00:26.171Z,20.22
2022-08-21T07:01:30.601Z,20.28
2022-08-21T07:02:34.888Z,20.31
2022-08-21T07:03:39.230Z,20.34
2022-08-21T07:04:43.685Z,20.36
2022-08-21T07:05:48.016Z,20.39
2022-08-21T07:06:52.419Z,20.43
2022-08-21T07:07:56.831Z,20.45
2022-08-21T07:09:01.208Z,20.47
2022-08-21T07:10:05.649Z,20.49
2022-08-21T07:11:09.961Z,20.46
2022-08-21T07:12:14.408Z,20.44
2022-08-21T07:13:18.744Z,20.41
2022-08-21T07:14:23.290Z,20.39
2022-08-21T07:15:27.617Z,20.37
2022-08-21T07:16:31.975Z,20.36
2022-08-21T07:17:36.427Z,20.36
2022-08-21T07:18:40.781Z,20.35
2022-08-21T07:19:45.221Z,20.35
2022-08-21T07:20:49.659Z,20.35
2022-08-21T07:21:54.042Z,20.35
2022-08-21T07:22:58.605Z,20.36
2022-08-21T07:24:02.745Z,20.36
2022-08-21T07:25:07.108Z,20.34
2022-08-21T07:26:11.553Z,20.34
2022-08-21T07:27:15.909Z,20.34
2022-08-21T07:28:20.337Z,20.35
2022-08-21T07:29:24.693Z,20.35
2022-08-21T07:30:29.041Z,20.36
2022-08-21T07:31:33.496Z,20.39
2022-08-21T07:32:37.855Z,20.41
2022-08-21T07:33:42.304Z,20.43
2022-08-21T07:34:46.701Z,20.45
2022-08-21T07:35:51.095Z,20.48
2022-08-21T07:36:55.459Z,20.51
2022-08-21T07:37:59.884Z,20.53
2022-08-21T07:39:04.278Z,20.56
2022-08-21T07:40:08.722Z,20.58
2022-08-21T07:41:13.024Z,20.61
2022-08-21T07:42:18.440Z,20.64
2022-08-21T07:43:22.382Z,20.67
2022-08-21T07:44:26.773Z,20.67
2022-08-21T07:45:31.192Z,20.66
2022-08-21T07:46:35.509Z,20.65
2022-08-21T07:47:42.239Z,20.65
2022-08-21T07:48:44.332Z,20.66
2022-08-21T07:49:48.775Z,20.67
2022-08-21T07:50:53.101Z,20.69
2022-08-21T07:51:57.562Z,20.71
2022-08-21T07:53:01.911Z,20.73
2022-08-21T07:54:06.363Z,20.73
2022-08-21T07:55:10.786Z,20.75
2022-08-21T07:56:15.232Z,20.79
2022-08-21T07:57:19.552Z,20.82
2022-08-21T07:58:23.930Z,20.83
2022-08-21T07:59:28.509Z,20.86
2022-08-21T08:00:32.820Z,20.88
2022-08-21T08:01:37.350Z,20.90
2022-08-21T08:02:41.682Z,20.94
2022-08-21T08:03:46.101Z,20.97
2022-08-21T08:04:50.875Z,21.00
2022-08-21T08:05:54.877Z,21.04
2022-08-21T08:06:59.204Z,21.07
2022-08-21T08:08:03.716Z,21.10
2022-08-21T08:09:08.147Z,21.13
2022-08-21T08:10:12.526Z,21.17
2022-08-21T08:11:16.902Z,21.20
2022-08-21T08:12:21.360Z,21.22
2022-08-21T08:13:25.800Z,21.24
2022-08-21T08:14:31.708Z,21.26
2022-08-21T08:15:37.621Z,21.29
2022-08-21T08:16:38.973Z,21.32
2022-08-21T08:17:43.426Z,21.35
2022-08-21T08:18:47.797Z,21.36
2022-08-21T08:19:52.175Z,21.39
2022-08-21T08:20:56.555Z,21.41
2022-08-21T08:22:00.922Z,21.43
2022-08-21T08:23:05.329Z,21.46
2022-08-21T08:24:19.387Z,21.50
2022-08-21T08:25:14.224Z,21.52
2022-08-21T08:26:18.653Z,21.55
2022-08-21T08:27:23.007Z,21.57
2022-08-21T08:28:27.505Z,21.61
2022-08-21T08:29:31.936Z,21.64
2022-08-21T08:30:36.307Z,21.68
2022-08-21T08:31:43.663Z,21.71
2022-08-21T08:33:01.594Z,21.73
2022-08-21T08:34:04.622Z,21.77
2022-08-21T08:35:09.079Z,21.78
2022-08-21T08:36:13.498Z,21.82
2022-08-21T08:37:17.952Z,21.85
2022-08-21T08:38:24.424Z,21.87
2022-08-21T08:39:29.645Z,21.90
2022-08-21T08:40:31.051Z,21.91
2022-08-21T08:41:35.464Z,21.93
2022-08-21T08:42:39.912Z,21.93
2022-08-21T08:43:44.284Z,21.95
2022-08-21T08:44:48.714Z,21.97
2022-08-21T08:45:53.145Z,21.98
2022-08-21T08:46:57.692Z,22.01
2022-08-21T08:48:02.010Z,22.03
2022-08-21T08:49:06.447Z,22.01
2022-08-21T08:50:10.791Z,22.02
2022-08-21T08:51:15.166Z,22.04
2022-08-21T08:52:19.550Z,22.05
2022-08-21T08:53:23.931Z,22.04
2022-08-21T08:54:28.354Z,22.06
2022-08-21T08:55:32.731Z,22.07
2022-08-21T08:56:37.187Z,22.08
2022-08-21T08:57:41.511Z,22.10
2022-08-21T08:58:45.994Z,22.11
2022-08-21T08:59:50.353Z,22.11
2022-08-21T09:00:54.889Z,22.10
2022-08-21T09:01:59.204Z,22.11
2022-08-21T09:03:03.605Z,22.14
2022-08-21T09:04:07.993Z,22.17
2022-08-21T09:05:12.386Z,22.17
2022-08-21T09:06:16.779Z,22.20
2022-08-21T09:07:21.298Z,22.25
2022-08-21T09:08:25.706Z,22.29
2022-08-21T09:09:30.101Z,22.33
2022-08-21T09:10:34.451Z,22.36
2022-08-21T09:11:38.870Z,22.39
2022-08-21T09:12:43.375Z,22.42
2022-08-21T09:13:47.876Z,22.45
2022-08-21T09:14:52.334Z,22.50
2022-08-21T09:15:56.776Z,22.54
2022-08-21T09:17:01.091Z,22.61
2022-08-21T09:18:07.846Z,22.65
2022-08-21T09:19:10.050Z,22.73
2022-08-21T09:20:14.456Z,22.81
2022-08-21T09:21:21.877Z,22.89
2022-08-21T09:22:25.381Z,22.95
2022-08-21T09:23:29.807Z,23.00
2022-08-21T09:24:34.287Z,23.05
2022-08-21T09:25:38.625Z,23.09
2022-08-21T09:26:43.101Z,23.13
2022-08-21T09:27:47.491Z,23.17
2022-08-21T09:28:51.918Z,23.23
2022-08-21T09:29:56.396Z,23.30
2022-08-21T09:31:00.748Z,23.35
2022-08-21T09:32:05.164Z,23.37
2022-08-21T09:33:09.642Z,23.40
2022-08-21T09:34:14.065Z,23.41
2022-08-21T09:35:18.502Z,23.42
2022-08-21T09:36:22.863Z,23.45
2022-08-21T09:37:27.376Z,23.46
2022-08-21T09:38:31.732Z,23.46
2022-08-21T09:39:40.303Z,23.49
2022-08-21T09:40:40.692Z,23.50
2022-08-21T09:41:45.121Z,23.53
2022-08-21T09:42:49.574Z,23.57
2022-08-21T09:43:53.998Z,23.62
2022-08-21T09:44:58.431Z,23.70
2022-08-21T09:46:02.834Z,23.79
2022-08-21T09:47:07.225Z,23.87
2022-08-21T09:48:11.736Z,23.94
2022-08-21T09:49:16.117Z,23.98
2022-08-21T09:50:20.512Z,24.02
2022-08-21T09:51:24.931Z,24.05
2022-08-21T09:52:32.329Z,24.07
2022-08-21T09:53:36.265Z,24.08
2022-08-21T09:54:40.363Z,24.08
2022-08-21T09:55:44.797Z,24.06
2022-08-21T09:56:49.180Z,24.01
2022-08-21T09:57:53.671Z,23.99
2022-08-21T09:58:58.067Z,24.01
2022-08-21T10:00:02.549Z,24.03
2022-08-21T10:01:07.109Z,24.06
2022-08-21T10:02:11.457Z,24.09
2022-08-21T10:03:15.947Z,24.09
2022-08-21T10:04:20.387Z,24.11
2022-08-21T10:05:24.825Z,24.11
2022-08-21T10:06:29.283Z,24.15
2022-08-21T10:07:33.718Z,24.18
2022-08-21T10:08:38.177Z,24.21
2022-08-21T10:09:42.642Z,24.20
2022-08-21T10:10:47.121Z,24.17
2022-08-21T10:11:51.676Z,24.15
2022-08-21T10:12:56.099Z,24.13
2022-08-21T10:14:00.473Z,24.12
2022-08-21T10:15:08.441Z,24.15
2022-08-21T10:16:09.408Z,24.18
2022-08-21T10:17:13.849Z,24.23
2022-08-21T10:18:18.302Z,24.28
2022-08-21T10:19:23.643Z,24.33
2022-08-21T10:20:27.216Z,24.37
2022-08-21T10:21:31.650Z,24.40
2022-08-21T10:22:36.093Z,24.43
2022-08-21T10:23:40.556Z,24.44
2022-08-21T10:24:44.994Z,24.46
2022-08-21T10:25:56.413Z,24.49
2022-08-21T10:26:53.939Z,24.52
2022-08-21T10:27:58.433Z,24.52
2022-08-21T10:29:02.880Z,24.53
2022-08-21T10:30:07.349Z,24.53
2022-08-21T10:31:11.801Z,24.54
2022-08-21T10:32:25.999Z,24.53
2022-08-21T10:33:20.702Z,24.47
2022-08-21T10:34:25.182Z,24.40
2022-08-21T10:35:29.608Z,24.33
2022-08-21T10:36:34.095Z,24.30
2022-08-21T10:37:38.551Z,24.30
2022-08-21T10:39:02.697Z,24.33
2022-08-21T10:39:47.447Z,24.38
2022-08-21T10:40:51.966Z,24.42
2022-08-21T10:41:59.373Z,24.43
2022-08-21T10:43:00.842Z,24.45
2022-08-21T10:44:05.332Z,24.46
2022-08-21T10:45:09.793Z,24.48
2022-08-21T10:46:14.284Z,24.47
2022-08-21T10:47:18.718Z,24.43
2022-08-21T10:48:23.184Z,24.35
2022-08-21T10:49:27.614Z,24.28
2022-08-21T10:50:32.096Z,24.23
2022-08-21T10:51:36.532Z,24.23
2022-08-21T10:52:43.583Z,24.26
2022-08-21T10:53:45.426Z,24.31
2022-08-21T10:54:49.925Z,24.36
2022-08-21T10:55:54.383Z,24.40
2022-08-21T10:58:26.432Z,24.47
2022-08-21T10:59:33.333Z,24.49
2022-08-21T11:00:35.312Z,24.53
2022-08-21T11:01:42.705Z,24.57
2022-08-21T11:02:46.273Z,24.62
2022-08-21T11:03:50.742Z,24.68
2022-08-21T11:04:55.196Z,24.73
2022-08-21T11:05:59.674Z,24.76
2022-08-21T11:07:06.570Z,24.79
2022-08-21T11:08:08.639Z,24.81
2022-08-21T11:09:13.093Z,24.82
2022-08-21T11:10:17.560Z,24.82
2022-08-21T11:11:22.584Z,24.80
2022-08-21T11:12:26.581Z,24.76
2022-08-21T11:13:31.320Z,24.72
2022-08-21T11:14:35.472Z,24.65
2022-08-21T11:15:39.919Z,24.61
2022-08-21T11:16:44.369Z,24.59
2022-08-21T11:17:48.813Z,24.58
2022-08-21T11:18:53.256Z,24.60
2022-08-21T11:19:57.710Z,24.63
2022-08-21T11:21:02.190Z,24.67
2022-08-21T11:22:06.672Z,24.71
2022-08-21T11:23:11.550Z,24.74
2022-08-21T11:24:15.603Z,24.76
2022-08-21T11:25:20.028Z,24.80
2022-08-21T11:26:24.503Z,24.86
2022-08-21T11:27:28.974Z,24.93
2022-08-21T11:28:33.422Z,25.00
2022-08-21T11:29:37.833Z,25.06
2022-08-21T11:30:42.315Z,25.12
2022-08-21T11:31:46.765Z,25.18
2022-08-21T11:32:51.249Z,25.24
2022-08-21T11:33:55.654Z,25.29
2022-08-21T11:35:00.149Z,25.35
2022-08-21T11:36:04.562Z,25.40
2022-08-21T11:37:09.114Z,25.47
2022-08-21T11:38:13.571Z,25.53
2022-08-21T11:39:18.060Z,25.60
2022-08-21T11:40:22.579Z,25.64
2022-08-21T11:41:27.000Z,25.66
2022-08-21T11:42:31.483Z,25.66
2022-08-21T11:43:35.956Z,25.68
2022-08-21T11:44:40.389Z,25.74
2022-08-21T11:45:44.901Z,25.79
2022-08-21T11:46:49.354Z,25.81
2022-08-21T11:47:54.059Z,25.87
2022-08-21T11:48:58.300Z,25.91
2022-08-21T11:50:02.800Z,26.01
2022-08-21T11:51:07.261Z,26.13
2022-08-21T11:52:11.751Z,26.26
2022-08-21T11:53:16.220Z,26.32
2022-08-21T11:54:20.688Z,26.33
2022-08-21T11:55:25.253Z,26.36
2022-08-21T11:56:29.653Z,26.41
2022-08-21T11:57:34.108Z,26.47
2022-08-21T11:58:38.691Z,26.59
2022-08-21T11:59:43.123Z,26.73
2022-08-21T12:00:47.589Z,26.83
2022-08-21T12:01:52.126Z,26.89
2022-08-21T12:02:56.718Z,26.88
2022-08-21T12:04:01.064Z,26.78
2022-08-21T12:05:11.530Z,26.75
2022-08-21T12:06:14.671Z,26.86
2022-08-21T12:07:19.153Z,26.93
2022-08-21T12:08:23.600Z,26.99
2022-08-21T12:09:28.098Z,26.98
2022-08-21T12:10:32.567Z,27.01
2022-08-21T12:11:37.042Z,27.06
2022-08-21T12:12:41.511Z,27.06
2022-08-21T12:13:45.992Z,27.08
2022-08-21T12:14:56.464Z,27.08
2022-08-21T12:15:59.613Z,27.07
2022-08-21T12:17:04.063Z,27.07
2022-08-21T12:18:08.542Z,27.07
2022-08-21T12:19:13.031Z,27.03
2022-08-21T12:20:17.537Z,26.99
2022-08-21T12:21:22.002Z,26.95
2022-08-21T12:22:26.462Z,26.87
2022-08-21T12:23:31.036Z,26.79
2022-08-21T12:24:35.484Z,26.71
2022-08-21T12:25:42.084Z,26.62
2022-08-21T12:26:44.450Z,26.56
2022-08-21T12:27:48.915Z,26.52
2022-08-21T12:28:53.346Z,26.46
2022-08-21T12:29:57.835Z,26.38
2022-08-21T12:31:02.305Z,26.35
2022-08-21T12:32:06.780Z,26.39
2022-08-21T12:33:11.249Z,26.37
2022-08-21T12:34:15.758Z,26.32
2022-08-21T12:35:24.991Z,26.21
2022-08-21T12:36:24.685Z,26.12
2022-08-21T12:37:29.177Z,26.01
2022-08-21T12:38:33.655Z,25.93
2022-08-21T12:39:38.249Z,25.82
2022-08-21T12:40:42.533Z,25.70
2022-08-21T12:41:47.005Z,25.61
2022-08-21T12:42:58.585Z,25.54
2022-08-21T12:43:55.927Z,25.50
2022-08-21T12:45:00.387Z,25.47
2022-08-21T12:46:04.876Z,25.43
2022-08-21T12:47:09.350Z,25.42
2022-08-21T12:48:13.831Z,25.42
2022-08-21T12:49:18.283Z,25.41
2022-08-21T12:50:22.754Z,25.38
2022-08-21T12:51:27.328Z,25.33
2022-08-21T12:52:35.709Z,25.32
2022-08-21T12:53:36.197Z,25.32
2022-08-21T12:54:40.657Z,25.29
2022-08-21T12:55:45.117Z,25.27
2022-08-21T12:56:49.570Z,25.26
2022-08-21T12:57:54.018Z,25.23
2022-08-21T12:58:58.466Z,25.18
2022-08-21T13:00:03.079Z,25.12
2022-08-21T13:01:07.425Z,25.09
2022-08-21T13:02:11.931Z,25.07
2022-08-21T13:03:16.287Z,25.05
2022-08-21T13:04:20.735Z,25.04
2022-08-21T13:05:25.153Z,25.07
2022-08-21T13:06:29.615Z,25.21
2022-08-21T13:07:34.107Z,25.41
2022-08-21T13:08:41.755Z,25.65
2022-08-21T13:09:43.041Z,25.89
2022-08-21T13:10:47.478Z,26.06
2022-08-21T13:11:52.469Z,26.09
2022-08-21T13:12:56.400Z,26.06
2022-08-21T13:14:04.729Z,26.07
2022-08-21T13:15:08.994Z,26.18
2022-08-21T13:16:09.948Z,26.29
2022-08-21T13:17:14.432Z,26.34
2022-08-21T13:18:19.006Z,26.37
2022-08-21T13:19:24.204Z,26.38
2022-08-21T13:20:27.971Z,26.36
2022-08-21T13:21:32.476Z,26.29
2022-08-21T13:22:36.925Z,26.27
2022-08-21T13:23:41.418Z,26.27
2022-08-21T13:24:45.944Z,26.27
2022-08-21T13:25:50.330Z,26.27
2022-08-21T13:26:54.924Z,26.31
2022-08-21T13:27:59.366Z,26.36
2022-08-21T13:29:03.984Z,26.37
2022-08-21T13:30:08.391Z,26.40
2022-08-21T13:31:12.892Z,26.44
2022-08-21T13:32:17.353Z,26.49
2022-08-21T13:33:21.868Z,26.56
2022-08-21T13:34:26.343Z,26.58
2022-08-21T13:35:30.835Z,26.58
2022-08-21T13:36:35.346Z,26.61
2022-08-21T13:37:39.854Z,26.63
2022-08-21T13:38:44.356Z,26.66
2022-08-21T13:39:48.880Z,26.70
2022-08-21T13:40:53.271Z,26.75
2022-08-21T13:41:57.765Z,26.79
2022-08-21T13:43:02.233Z,26.83
2022-08-21T13:44:06.710Z,26.85
2022-08-21T13:45:11.189Z,26.84
2022-08-21T13:46:15.683Z,26.78
2022-08-21T13:47:20.188Z,26.71
2022-08-21T13:48:24.638Z,26.65
2022-08-21T13:49:29.145Z,26.63
2022-08-21T13:50:33.618Z,26.64
2022-08-21T13:51:38.179Z,26.65